Weather at Mount Pleasant Airport [CLOSED]

Public forecast

Using degrees Celsius for public forecast. Weather courtesy of forecast.io.

Closest aviation weather report (METAR) to Mount Pleasant Airport

Closest report is Greater Moncton Roméo LeBlanc International Airport, 40.6 nm (75.2 km) SW. Retrieved 2020/10/27 08:00 UTC (59 minutes ago):

CYQM 270800Z 20006KT 1SM R29/P6000FT/N -RA BR BKN003 OVC020 07/07 A2993 RMK SF7SC1 VIS S - SW 3 SLP140

Closest aviation forecast (TAF) to Mount Pleasant Airport

Closest forecast is Greater Moncton Roméo LeBlanc International Airport, 40.6 nm (75.2 km) SW. Retrieved 2020/10/27 06:39 UTC (2 hours ago):

TAF CYQM 270538Z 2706/2806 VRB03KT 2SM -RA BR BKN003 OVC008 TEMPO 2706/2712 4SM -RA BR OVC008 BECMG 2706/2708 27012G22KT FM271200 30012G22KT 4SM -SHRA BR OVC008 TEMPO 2712/2715 6SM -RA BR OVC015 FM271500 30012G22KT P6SM BKN015 FM271700 30012G22KT P6SM BKN025 BECMG 2720/2722 31010KT FM280400 30010KT P6SM SCT030 RMK NXT FCST BY 271200Z